Time;durP1;ratioP1;P1;durP2;ratioP2;P2;SDS_P1;SDS_P2;PMS_P1;PMS_P2;Temp;Humidity;BMP_temperature;BMP_pressure;BME280_temperature;BME280_humidity;BME280_pressure;Samples;Min_cycle;Max_cycle;Signal;HPM_P1;HPM_P2
2021/06/15 00:00:19;;;;;;;9.50;4.10;;;;;;;12.39;50.60;99275.78;126488;1095;103076;-73
2021/06/15 00:03:07;;;;;;;11.67;3.93;;;;;;;12.38;50.69;99276.75;125607;1095;103074;-72
2021/06/15 00:05:35;;;;;;;13.43;3.93;;;;;;;12.36;50.65;99280.39;126086;1095;103406;-73
2021/06/15 00:08:06;;;;;;;9.50;3.70;;;;;;;12.29;50.83;99281.81;125633;1094;103027;-73
2021/06/15 00:10:37;;;;;;;11.50;4.10;;;;;;;12.09;50.76;99288.67;125623;1095;103034;-73
2021/06/15 00:13:06;;;;;;;11.25;3.80;;;;;;;11.94;50.55;99284.48;125753;1095;102998;-74
2021/06/15 00:15:37;;;;;;;13.13;4.20;;;;;;;11.95;50.62;99289.69;126584;1097;102757;-73
2021/06/15 00:18:05;;;;;;;9.00;3.60;;;;;;;11.97;51.02;99292.25;125577;1095;102977;-73
2021/06/15 00:20:33;;;;;;;10.03;3.90;;;;;;;11.99;50.99;99287.66;125588;1095;102954;-73
2021/06/15 00:23:05;;;;;;;10.60;3.67;;;;;;;12.01;51.06;99285.75;125533;1095;102916;-74
2021/06/15 00:25:34;;;;;;;12.50;3.93;;;;;;;12.01;51.12;99286.59;126412;1095;103022;-73
2021/06/15 00:28:03;;;;;;;12.00;4.20;;;;;;;12.00;51.26;99284.89;125466;1096;102994;-75
2021/06/15 00:30:35;;;;;;;8.77;3.57;;;;;;;11.98;51.42;99285.95;125544;1095;103464;-74
2021/06/15 00:33:03;;;;;;;10.53;3.60;;;;;;;11.97;51.35;99287.75;125560;1094;103044;-74
2021/06/15 00:35:32;;;;;;;12.67;4.03;;;;;;;11.97;51.38;99281.59;125592;1095;103052;-73
2021/06/15 00:38:00;;;;;;;15.27;5.03;;;;;;;11.94;51.48;99292.48;125600;1095;102917;-73
2021/06/15 00:40:33;;;;;;;15.03;5.20;;;;;;;11.87;51.33;99289.40;125606;1095;103063;-73
2021/06/15 00:43:03;;;;;;;16.87;5.10;;;;;;;11.76;51.68;99285.74;125544;1095;103033;-74
2021/06/15 00:45:33;;;;;;;17.40;5.30;;;;;;;11.76;51.64;99288.41;125699;1097;102937;-73
2021/06/15 00:48:02;;;;;;;14.03;4.93;;;;;;;11.78;52.01;99288.28;125612;1094;102916;-74
2021/06/15 00:50:35;;;;;;;16.33;4.53;;;;;;;11.80;51.96;99290.84;125597;1095;102916;-73
2021/06/15 00:53:05;;;;;;;13.53;4.77;;;;;;;11.79;51.96;99281.16;125563;1096;103116;-75
2021/06/15 00:55:33;;;;;;;15.90;4.37;;;;;;;11.77;51.91;99281.25;125593;1095;103377;-73
2021/06/15 00:58:02;;;;;;;12.17;3.90;;;;;;;11.76;52.12;99275.08;125559;1094;103026;-74
2021/06/15 01:00:31;;;;;;;13.13;4.40;;;;;;;11.75;52.13;99267.19;125639;1095;102923;-74
2021/06/15 01:03:00;;;;;;;12.27;3.93;;;;;;;11.74;52.23;99266.35;125544;1095;103021;-73
2021/06/15 01:05:28;;;;;;;9.73;3.70;;;;;;;11.72;52.32;99260.28;125588;1094;103057;-72
2021/06/15 01:08:05;;;;;;;11.47;3.80;;;;;;;11.69;52.29;99259.64;125572;1095;102951;-73
2021/06/15 01:11:03;;;;;;;9.90;3.80;;;;;;;11.65;52.26;99258.17;125635;1096;103002;-73
2021/06/15 01:13:52;;;;;;;11.00;3.97;;;;;;;11.64;52.44;99257.33;125552;1095;102937;-73
2021/06/15 01:16:26;;;;;;;10.33;3.67;;;;;;;11.61;52.53;99263.72;125645;1096;102916;-72
2021/06/15 01:19:23;;;;;;;9.20;4.10;;;;;;;11.54;52.50;99259.84;125585;1094;103170;-73
2021/06/15 01:22:27;;;;;;;10.10;3.77;;;;;;;11.48;52.57;99252.30;125621;1096;102921;-72
2021/06/15 01:25:18;;;;;;;11.60;4.00;;;;;;;11.42;52.62;99258.06;125682;1095;102938;-73
2021/06/15 01:27:58;;;;;;;12.57;3.93;;;;;;;11.41;52.64;99249.20;125617;1095;102970;-74
2021/06/15 01:30:38;;;;;;;18.23;4.93;;;;;;;11.33;52.63;99251.61;125617;1095;103055;-73
2021/06/15 01:33:13;;;;;;;15.87;4.70;;;;;;;11.25;52.90;99254.81;125647;1096;103034;-73
2021/06/15 01:35:42;;;;;;;12.67;4.30;;;;;;;11.25;53.00;99246.81;126483;1094;102974;-73
2021/06/15 01:38:15;;;;;;;10.70;4.17;;;;;;;11.25;53.07;99249.48;125833;1094;103060;-73
2021/06/15 01:41:10;;;;;;;12.80;4.48;;;;;;;11.26;53.04;99248.52;125683;1096;103028;-73
2021/06/15 01:43:57;;;;;;;12.57;4.50;;;;;;;11.22;53.03;99248.87;125697;1095;103014;-73
2021/06/15 01:46:33;;;;;;;15.43;4.73;;;;;;;10.93;52.80;99257.98;125617;1094;103077;-74
2021/06/15 01:49:09;;;;;;;11.97;3.90;;;;;;;10.85;53.33;99257.67;125652;1095;102964;-73
2021/06/15 01:51:39;;;;;;;10.80;4.07;;;;;;;10.87;53.43;99243.31;125670;1096;102996;-72
2021/06/15 01:54:11;;;;;;;10.70;4.00;;;;;;;10.89;53.44;99255.66;125529;1096;103065;-73
2021/06/15 01:56:43;;;;;;;13.07;4.30;;;;;;;10.90;53.48;99252.04;125638;1095;103033;-72
2021/06/15 01:59:15;;;;;;;11.60;4.17;;;;;;;10.90;53.52;99255.54;125582;1095;103007;-72
2021/06/15 02:01:48;;;;;;;11.63;4.10;;;;;;;10.90;53.51;99252.04;125634;1096;102990;-73
2021/06/15 02:04:18;;;;;;;9.10;3.65;;;;;;;10.90;53.60;99255.54;125550;1096;102909;-73
2021/06/15 02:06:48;;;;;;;9.50;4.15;;;;;;;10.87;53.66;99253.95;125588;1095;102916;-73
2021/06/15 02:09:19;;;;;;;11.33;4.60;;;;;;;10.86;53.80;99252.26;125630;1095;102948;-73
2021/06/15 02:11:49;;;;;;;8.90;3.70;;;;;;;10.75;53.60;99256.64;125718;1095;103192;-74
2021/06/15 02:14:25;;;;;;;9.87;4.10;;;;;;;10.50;53.57;99251.23;125505;1096;103074;-72
2021/06/15 02:16:57;;;;;;;11.40;3.90;;;;;;;10.39;53.88;99254.61;125681;1096;102922;-72
2021/06/15 02:19:30;;;;;;;12.93;4.53;;;;;;;10.41;54.00;99244.72;125651;1095;102919;-73
2021/06/15 02:22:08;;;;;;;9.93;3.63;;;;;;;10.43;54.32;99250.78;126089;1095;102917;-73
2021/06/15 02:24:49;;;;;;;11.13;4.13;;;;;;;10.48;54.20;99242.50;125676;1096;103031;-73
2021/06/15 02:27:23;;;;;;;11.37;4.57;;;;;;;10.49;54.28;99248.66;125614;1095;102818;-73
2021/06/15 02:29:57;;;;;;;9.30;3.90;;;;;;;10.45;54.25;99249.83;126172;1095;102949;-72
2021/06/15 02:32:32;;;;;;;10.98;4.20;;;;;;;10.42;54.38;99245.59;125587;1095;102916;-72
2021/06/15 02:35:06;;;;;;;9.60;4.50;;;;;;;10.37;54.37;99240.57;125598;1094;103030;-72
2021/06/15 02:38:05;;;;;;;10.87;3.93;;;;;;;10.39;54.54;99245.80;125678;1096;103041;-73
2021/06/15 02:40:36;;;;;;;10.30;4.07;;;;;;;10.44;54.60;99248.99;125660;1096;103020;-73
2021/06/15 02:43:08;;;;;;;12.05;4.00;;;;;;;10.47;54.65;99240.80;125661;1096;103034;-72
2021/06/15 02:45:42;;;;;;;13.83;4.17;;;;;;;10.49;54.83;99246.87;126415;1096;102998;-74
2021/06/15 02:48:15;;;;;;;10.63;4.43;;;;;;;10.50;54.77;99253.89;125630;1095;102991;-72
2021/06/15 02:50:45;;;;;;;10.00;4.30;;;;;;;10.54;54.96;99259.83;125601;1096;102943;-72
2021/06/15 02:53:27;;;;;;;10.67;4.20;;;;;;;10.54;54.84;99251.86;125641;1096;103012;-72
2021/06/15 02:56:14;;;;;;;8.80;3.80;;;;;;;10.54;55.23;99250.06;125682;1094;102935;-73
2021/06/15 02:58:48;;;;;;;8.60;3.77;;;;;;;10.57;55.10;99251.64;125670;1094;102942;-73
2021/06/15 03:01:16;;;;;;;14.37;4.13;;;;;;;10.59;55.20;99248.89;125666;1095;103033;-74
2021/06/15 03:03:44;;;;;;;11.23;4.13;;;;;;;10.61;55.21;99249.61;125674;1095;102921;-72
2021/06/15 03:06:13;;;;;;;11.03;4.03;;;;;;;10.62;55.14;99252.17;125666;1095;102995;-71
2021/06/15 03:08:43;;;;;;;11.63;4.23;;;;;;;10.64;55.19;99247.60;125716;1095;103012;-72
2021/06/15 03:11:19;;;;;;;10.43;4.10;;;;;;;10.66;55.41;99250.14;125669;1096;103018;-72
2021/06/15 03:14:14;;;;;;;13.23;4.60;;;;;;;10.68;55.24;99248.22;125698;1095;102939;-73
2021/06/15 03:16:43;;;;;;;13.37;4.60;;;;;;;10.70;55.54;99255.16;125646;1097;103505;-75
2021/06/15 03:19:21;;;;;;;12.15;4.85;;;;;;;10.73;55.55;99259.40;125440;1097;103016;-72
2021/06/15 03:22:04;;;;;;;10.03;4.43;;;;;;;10.74;55.51;99260.27;126148;1095;103032;-72
2021/06/15 03:24:41;;;;;;;13.30;4.83;;;;;;;10.69;55.55;99260.56;125728;1095;103018;-73
2021/06/15 03:27:15;;;;;;;12.37;4.77;;;;;;;10.67;55.75;99258.03;125656;1094;102913;-73
2021/06/15 03:29:47;;;;;;;11.47;4.37;;;;;;;10.67;55.51;99260.69;125647;1096;103025;-73
2021/06/15 03:32:20;;;;;;;10.23;4.20;;;;;;;10.65;55.64;99264.39;125979;1096;103025;-79
2021/06/15 03:34:53;;;;;;;15.05;5.85;;;;;;;10.61;55.67;99260.25;125599;1096;103057;-76
2021/06/15 03:37:26;;;;;;;17.40;6.30;;;;;;;10.53;55.70;99272.30;125562;1094;103277;-76
2021/06/15 03:39:58;;;;;;;18.90;6.18;;;;;;;10.44;56.23;99267.61;126211;1096;102940;-76
2021/06/15 03:42:37;;;;;;;27.90;6.23;;;;;;;10.42;56.46;99270.36;125676;1096;103105;-77
2021/06/15 03:45:08;;;;;;;14.80;5.70;;;;;;;10.42;56.33;99264.20;125627;1096;103029;-76
2021/06/15 03:47:39;;;;;;;14.97;5.60;;;;;;;10.43;56.21;99261.42;125708;1096;102941;-76
2021/06/15 03:50:10;;;;;;;15.73;5.70;;;;;;;10.46;56.48;99263.03;125643;1096;103071;-78
2021/06/15 03:52:40;;;;;;;15.23;5.30;;;;;;;10.48;56.23;99271.77;125689;1096;102937;-75
2021/06/15 03:55:12;;;;;;;16.23;5.73;;;;;;;10.49;56.54;99272.59;125684;1096;103060;-76
2021/06/15 03:57:44;;;;;;;18.63;5.50;;;;;;;10.49;56.43;99273.46;125634;1096;103012;-74
2021/06/15 04:00:17;;;;;;;12.73;5.50;;;;;;;10.55;56.61;99277.50;125664;1096;102911;-74
2021/06/15 04:02:49;;;;;;;14.18;5.25;;;;;;;10.60;56.86;99267.39;125600;1094;103018;-73
2021/06/15 04:05:21;;;;;;;16.80;5.83;;;;;;;10.64;56.72;99270.67;125625;1095;102952;-74
2021/06/15 04:07:51;;;;;;;14.30;5.90;;;;;;;10.65;56.89;99259.95;125661;1096;103014;-75
2021/06/15 04:10:21;;;;;;;14.20;5.47;;;;;;;10.70;57.07;99262.27;125627;1096;103015;-72
2021/06/15 04:12:52;;;;;;;15.50;6.07;;;;;;;10.73;57.36;99256.73;125682;1096;102909;-73
2021/06/15 04:15:22;;;;;;;15.33;5.70;;;;;;;10.78;57.32;99259.09;125672;1095;103015;-73
2021/06/15 04:17:52;;;;;;;14.93;5.67;;;;;;;10.88;57.35;99268.10;125695;1097;102922;-73
2021/06/15 04:20:33;;;;;;;15.17;5.80;;;;;;;10.93;57.66;99273.95;125670;1096;103068;-74
2021/06/15 04:23:05;;;;;;;16.47;5.20;;;;;;;11.03;57.49;99276.80;125577;1096;103043;-75
2021/06/15 04:25:39;;;;;;;15.93;5.27;;;;;;;11.11;57.49;99273.61;125601;1096;102912;-73
2021/06/15 04:28:10;;;;;;;17.43;5.93;;;;;;;11.19;57.84;99281.04;125632;1095;103059;-76
2021/06/15 04:30:40;;;;;;;13.70;5.67;;;;;;;11.27;57.90;99273.36;125664;1096;102987;-76
2021/06/15 04:33:10;;;;;;;16.27;5.73;;;;;;;11.38;57.97;99276.09;125635;1096;102933;-76
2021/06/15 04:35:46;;;;;;;13.87;5.63;;;;;;;11.46;57.91;99284.35;125599;1096;102941;-77
2021/06/15 04:38:23;;;;;;;16.35;6.35;;;;;;;11.56;58.32;99273.89;125628;1095;103415;-76
2021/06/15 04:41:00;;;;;;;17.07;5.90;;;;;;;11.65;58.12;99271.48;125640;1097;102927;-76
2021/06/15 04:43:52;;;;;;;;;;;;;;;11.72;58.63;99275.41;125670;1097;102908;-77
2021/06/15 04:46:37;;;;;;;14.70;5.87;;;;;;;11.78;58.07;99276.78;125709;1095;103066;-79
2021/06/15 04:49:29;;;;;;;15.50;6.07;;;;;;;11.84;58.04;99277.16;125633;1097;103015;-76
2021/06/15 04:52:01;;;;;;;15.50;5.90;;;;;;;11.90;58.09;99278.52;125679;1097;102920;-77
2021/06/15 04:54:38;;;;;;;15.55;6.10;;;;;;;11.99;58.28;99284.98;125487;1096;102955;-78
2021/06/15 04:57:10;;;;;;;17.33;6.13;;;;;;;12.08;58.38;99286.13;125698;1095;102922;-77
2021/06/15 04:59:41;;;;;;;15.67;6.10;;;;;;;12.18;58.27;99289.81;125675;1096;102950;-77
2021/06/15 05:02:11;;;;;;;17.20;7.10;;;;;;;12.28;58.46;99290.78;125647;1097;103048;-74
2021/06/15 05:04:41;;;;;;;16.53;6.70;;;;;;;12.37;58.38;99281.25;125743;1096;102948;-74
2021/06/15 05:07:09;;;;;;;18.70;7.33;;;;;;;12.45;58.51;99284.16;125614;1096;102936;-73
2021/06/15 05:09:39;;;;;;;15.73;6.37;;;;;;;12.55;58.50;99286.98;125477;1096;103030;-74
2021/06/15 05:12:09;;;;;;;20.73;7.80;;;;;;;12.63;58.51;99281.88;125656;1095;102926;-74
2021/06/15 05:14:40;;;;;;;19.93;7.30;;;;;;;12.73;58.74;99290.03;125612;1097;103026;-73
2021/06/15 05:17:10;;;;;;;15.10;6.67;;;;;;;12.84;58.70;99293.69;125484;1096;103017;-75
2021/06/15 05:19:40;;;;;;;15.57;6.63;;;;;;;12.92;58.71;99285.89;125631;1097;102940;-76
2021/06/15 05:22:17;;;;;;;17.53;6.77;;;;;;;13.04;58.67;99284.09;125725;1097;102929;-74
2021/06/15 05:24:49;;;;;;;12.47;5.63;;;;;;;13.17;58.64;99297.31;125485;1096;103067;-76
2021/06/15 05:27:20;;;;;;;15.97;5.93;;;;;;;13.29;58.64;99296.30;125667;1097;102954;-74
2021/06/15 05:29:50;;;;;;;14.90;6.20;;;;;;;13.40;58.94;99301.64;125674;1097;103058;-75
2021/06/15 05:32:30;;;;;;;15.40;5.83;;;;;;;13.54;58.67;99300.55;125635;1096;103090;-75
2021/06/15 05:35:00;;;;;;;12.97;5.70;;;;;;;13.70;58.71;99296.63;125632;1097;102911;-74
2021/06/15 05:37:28;;;;;;;15.43;6.47;;;;;;;13.88;58.78;99307.63;125403;1096;103009;-75
2021/06/15 05:39:57;;;;;;;17.77;6.37;;;;;;;14.06;58.74;99302.57;125591;1097;102936;-74
2021/06/15 05:42:26;;;;;;;12.00;5.27;;;;;;;14.28;58.95;99306.09;125587;1097;103161;-75
2021/06/15 05:44:55;;;;;;;14.90;5.80;;;;;;;14.46;58.78;99309.07;125538;1096;103010;-73
2021/06/15 05:47:24;;;;;;;14.27;5.93;;;;;;;14.64;58.93;99306.64;125406;1096;102913;-74
2021/06/15 05:49:52;;;;;;;11.67;5.20;;;;;;;14.82;58.76;99303.37;125475;1096;103010;-75
2021/06/15 05:52:21;;;;;;;15.73;5.37;;;;;;;15.00;58.91;99314.31;125618;1096;103000;-73
2021/06/15 05:54:49;;;;;;;9.97;4.07;;;;;;;15.10;58.69;99304.48;125684;1096;102997;-73
2021/06/15 05:57:18;;;;;;;9.17;4.33;;;;;;;15.20;58.71;99312.55;125518;1096;103127;-73
2021/06/15 05:59:46;;;;;;;9.13;4.13;;;;;;;15.35;58.69;99309.51;125708;1095;102911;-73
2021/06/15 06:02:15;;;;;;;9.70;5.07;;;;;;;15.45;58.66;99302.34;125725;1095;103036;-74
2021/06/15 06:10:23;;;;;;;12.77;4.93;;;;;;;15.91;58.37;99303.55;125669;1097;103032;-73
2021/06/15 06:12:52;;;;;;;14.87;4.43;;;;;;;16.04;58.53;99310.48;125549;1096;102908;-73
2021/06/15 06:15:20;;;;;;;9.80;4.33;;;;;;;16.17;58.29;99311.06;125662;1097;102962;-74
2021/06/15 06:17:49;;;;;;;10.07;4.03;;;;;;;16.36;58.55;99314.70;125661;1096;103015;-74
2021/06/15 06:20:18;;;;;;;13.83;4.27;;;;;;;16.54;58.59;99309.44;125658;1095;102971;-74
2021/06/15 06:22:46;;;;;;;9.30;3.43;;;;;;;16.72;58.39;99301.48;125680;1097;102944;-75
2021/06/15 06:25:15;;;;;;;9.53;3.47;;;;;;;16.88;58.20;99311.64;125693;1097;102957;-74
2021/06/15 06:27:44;;;;;;;7.00;3.37;;;;;;;17.06;58.13;99316.27;125532;1095;103025;-74
2021/06/15 06:30:13;;;;;;;8.97;3.80;;;;;;;17.24;58.43;99309.13;125612;1095;103122;-74
2021/06/15 06:32:43;;;;;;;6.73;3.10;;;;;;;17.41;58.10;99303.92;125685;1096;103007;-74
2021/06/15 06:35:11;;;;;;;10.70;3.50;;;;;;;17.60;57.99;99305.66;125652;1096;103153;-74
2021/06/15 06:37:40;;;;;;;6.30;3.10;;;;;;;17.82;57.87;99298.16;125654;1097;103449;-74
2021/06/15 06:40:10;;;;;;;7.93;3.40;;;;;;;18.05;58.33;99309.34;125682;1096;103003;-74
2021/06/15 06:42:39;;;;;;;11.27;4.33;;;;;;;18.27;58.25;99308.02;125662;1097;103051;-74
2021/06/15 06:45:11;;;;;;;10.17;3.57;;;;;;;18.49;57.89;99304.98;125682;1096;103068;-74
2021/06/15 06:47:39;;;;;;;6.57;3.40;;;;;;;18.70;57.79;99299.24;125617;1096;103022;-72
2021/06/15 06:50:08;;;;;;;8.53;3.40;;;;;;;18.93;58.20;99296.85;125524;1096;103154;-73
2021/06/15 06:52:37;;;;;;;7.43;3.33;;;;;;;19.20;58.14;99300.38;125659;1097;103032;-74
2021/06/15 06:55:07;;;;;;;8.97;3.97;;;;;;;19.48;58.19;99302.83;125625;1096;102994;-73
2021/06/15 06:57:35;;;;;;;7.67;3.67;;;;;;;19.79;57.88;99303.08;125662;1096;102913;-74
2021/06/15 07:00:04;;;;;;;8.33;3.50;;;;;;;20.10;57.94;99298.94;125673;1094;103140;-75
2021/06/15 07:02:33;;;;;;;8.53;3.60;;;;;;;20.43;57.83;99304.33;125704;1097;103044;-74
2021/06/15 07:05:01;;;;;;;6.03;3.27;;;;;;;20.81;57.82;99303.78;125668;1095;103070;-74
2021/06/15 07:07:29;;;;;;;7.43;3.57;;;;;;;21.15;57.83;99302.70;125635;1097;102916;-75
2021/06/15 07:09:58;;;;;;;7.73;4.00;;;;;;;21.56;57.56;99307.06;125678;1097;103042;-74
2021/06/15 07:12:26;;;;;;;7.63;3.30;;;;;;;21.94;57.30;99301.79;125664;1096;103027;-73
2021/06/15 07:14:55;;;;;;;6.17;2.80;;;;;;;22.32;57.54;99301.00;125688;1095;103034;-73
2021/06/15 07:17:23;;;;;;;8.10;3.20;;;;;;;22.69;57.29;99302.05;125749;1096;103036;-74
2021/06/15 07:19:52;;;;;;;6.83;3.00;;;;;;;23.08;57.17;99307.39;125672;1095;103039;-74
2021/06/15 07:22:20;;;;;;;7.43;2.30;;;;;;;23.51;57.36;99301.28;125677;1095;103029;-74
2021/06/15 07:24:48;;;;;;;6.87;2.47;;;;;;;23.83;56.28;99299.16;125665;1096;103065;-75
2021/06/15 07:27:18;;;;;;;6.00;2.37;;;;;;;24.06;56.63;99304.41;125672;1096;103055;-73
2021/06/15 07:29:47;;;;;;;5.27;2.90;;;;;;;24.41;56.47;99303.69;125657;1096;103039;-75
2021/06/15 07:32:16;;;;;;;21.47;9.77;;;;;;;24.72;56.31;99305.20;125656;1096;103007;-73
2021/06/15 07:34:44;;;;;;;9.43;3.47;;;;;;;24.87;55.70;99308.67;125660;1096;103009;-74
2021/06/15 07:37:13;;;;;;;6.47;3.00;;;;;;;25.08;55.59;99309.62;125641;1096;103016;-74
2021/06/15 07:39:41;;;;;;;5.67;3.03;;;;;;;25.33;55.63;99304.52;125731;1095;102984;-74
2021/06/15 07:42:10;;;;;;;7.40;3.03;;;;;;;25.71;55.55;99295.89;125670;1096;102952;-74
2021/06/15 07:44:38;;;;;;;10.10;2.77;;;;;;;26.03;55.28;99292.61;125639;1095;103195;-73
2021/06/15 07:47:07;;;;;;;4.97;2.90;;;;;;;26.35;55.17;99289.31;125689;1097;103000;-75
2021/06/15 07:49:36;;;;;;;5.83;2.90;;;;;;;26.81;54.96;99287.59;125654;1095;103091;-74
2021/06/15 07:52:05;;;;;;;5.93;2.77;;;;;;;27.22;54.31;99286.45;125570;1096;103063;-73
2021/06/15 07:54:36;;;;;;;5.80;2.87;;;;;;;27.52;54.06;99288.66;125676;1095;102922;-74
2021/06/15 07:57:06;;;;;;;7.30;2.57;;;;;;;27.97;53.95;99286.94;125643;1096;103106;-74
2021/06/15 07:59:34;;;;;;;6.97;2.60;;;;;;;28.30;53.60;99278.53;125659;1095;102914;-73
2021/06/15 08:02:03;;;;;;;5.60;2.97;;;;;;;28.77;53.19;99289.07;125619;1096;103412;-73
2021/06/15 08:04:32;;;;;;;6.30;2.53;;;;;;;29.02;53.45;99284.61;125684;1096;103090;-74
2021/06/15 08:07:00;;;;;;;6.20;3.10;;;;;;;29.35;53.52;99286.96;125684;1095;103068;-72
2021/06/15 08:09:28;;;;;;;8.50;2.90;;;;;;;29.67;52.59;99289.52;125654;1095;103109;-73
2021/06/15 08:11:57;;;;;;;7.67;3.03;;;;;;;29.60;51.73;99287.95;125658;1097;102945;-73
2021/06/15 08:14:26;;;;;;;9.13;3.27;;;;;;;29.67;52.10;99294.18;125613;1096;102955;-73
2021/06/15 08:16:54;;;;;;;6.80;3.03;;;;;;;29.68;50.98;99291.20;125671;1096;103015;-73
2021/06/15 08:19:23;;;;;;;16.83;3.13;;;;;;;29.75;51.18;99298.49;125690;1094;103093;-73
2021/06/15 08:21:51;;;;;;;10.73;4.60;;;;;;;30.09;50.92;99287.89;125653;1095;103092;-75
2021/06/15 08:24:20;;;;;;;7.37;3.57;;;;;;;30.36;50.64;99287.48;125674;1096;103000;-72
2021/06/15 08:26:48;;;;;;;7.27;2.73;;;;;;;30.47;49.91;99289.38;125661;1096;102913;-73
2021/06/15 08:29:17;;;;;;;5.03;2.80;;;;;;;30.58;49.29;99287.74;125669;1095;103608;-73
2021/06/15 08:31:46;;;;;;;4.35;2.65;;;;;;;30.88;49.19;99293.11;125650;1094;103017;-74
2021/06/15 08:34:15;;;;;;;9.27;2.80;;;;;;;31.13;48.61;99289.27;125707;1095;103085;-73
2021/06/15 08:36:43;;;;;;;10.70;3.10;;;;;;;31.76;48.65;99291.40;125732;1096;102975;-73
2021/06/15 08:39:12;;;;;;;4.35;2.40;;;;;;;32.12;47.94;99280.19;125699;1095;103100;-74
2021/06/15 08:41:41;;;;;;;9.40;2.60;;;;;;;32.27;47.33;99279.61;125678;1097;103055;-74
2021/06/15 08:44:10;;;;;;;17.37;9.27;;;;;;;32.59;47.30;99279.06;125593;1095;102937;-74
2021/06/15 08:46:39;;;;;;;6.63;3.30;;;;;;;33.29;47.03;99276.72;125487;1096;103057;-74
2021/06/15 08:49:07;;;;;;;6.03;2.80;;;;;;;33.74;46.19;99273.94;125662;1095;102994;-72
2021/06/15 08:51:36;;;;;;;6.87;2.50;;;;;;;33.85;45.42;99270.17;125627;1097;102932;-74
2021/06/15 08:54:08;;;;;;;7.27;2.80;;;;;;;33.60;45.60;99271.59;125613;1095;102916;-74
2021/06/15 08:56:36;;;;;;;5.53;2.70;;;;;;;34.06;45.22;99268.47;125679;1096;103009;-73
2021/06/15 08:59:17;;;;;;;5.57;2.73;;;;;;;34.32;44.60;99274.22;125670;1095;103199;-74
2021/06/15 09:01:52;;;;;;;7.65;2.63;;;;;;;34.49;44.61;99276.01;125676;1097;102916;-74
2021/06/15 09:04:21;;;;;;;6.13;2.07;;;;;;;34.76;44.21;99266.81;125668;1097;103016;-73
2021/06/15 09:06:54;;;;;;;4.27;2.30;;;;;;;34.69;43.39;99270.63;125726;1096;103018;-73
2021/06/15 09:09:23;;;;;;;5.23;2.30;;;;;;;34.82;43.77;99268.50;125651;1095;103013;-72
2021/06/15 09:11:57;;;;;;;4.87;2.20;;;;;;;34.98;42.77;99270.27;125636;1094;102805;-72
2021/06/15 09:14:38;;;;;;;2.83;2.23;;;;;;;35.12;42.36;99272.55;125725;1096;102948;-74
2021/06/15 09:17:13;;;;;;;6.68;1.55;;;;;;;34.82;41.92;99261.03;125688;1095;103001;-73
2021/06/15 09:19:42;;;;;;;2.93;2.00;;;;;;;34.59;41.45;99259.52;125697;1096;103065;-73
2021/06/15 09:22:25;;;;;;;4.20;1.60;;;;;;;34.22;41.00;99263.94;125695;1096;102916;-71
2021/06/15 09:24:54;;;;;;;3.90;2.17;;;;;;;34.23;41.11;99264.75;125675;1097;103081;-72
2021/06/15 09:27:33;;;;;;;5.03;2.60;;;;;;;34.22;40.97;99257.56;125698;1096;103031;-74
2021/06/15 09:30:05;;;;;;;22.67;13.73;;;;;;;34.05;40.59;99246.66;125642;1096;102948;-73
2021/06/15 09:32:41;;;;;;;3.17;2.37;;;;;;;34.12;40.13;99256.38;125722;1096;102985;-73
2021/06/15 09:35:11;;;;;;;3.07;2.00;;;;;;;34.29;40.05;99256.23;125679;1095;102916;-74
2021/06/15 09:37:49;;;;;;;5.83;1.70;;;;;;;34.10;39.48;99258.56;125659;1096;102917;-73
2021/06/15 09:40:30;;;;;;;2.53;2.07;;;;;;;33.86;39.00;99258.05;125675;1096;102985;-72
2021/06/15 09:43:09;;;;;;;4.70;2.30;;;;;;;33.18;38.32;99256.48;125677;1096;102922;-72
2021/06/15 09:45:43;;;;;;;2.60;1.90;;;;;;;32.79;38.25;99245.48;125695;1096;102916;-72
2021/06/15 09:48:31;;;;;;;3.50;2.40;;;;;;;32.71;38.02;99246.73;125753;1094;102911;-71
2021/06/15 09:51:10;;;;;;;3.20;2.03;;;;;;;32.66;37.82;99246.66;125716;1095;103169;-72
2021/06/15 09:53:45;;;;;;;3.00;2.00;;;;;;;32.50;37.33;99245.59;125740;1097;103012;-73
2021/06/15 09:56:16;;;;;;;5.47;2.10;;;;;;;32.32;37.38;99252.20;125697;1097;103008;-72
2021/06/15 09:58:56;;;;;;;2.50;1.77;;;;;;;32.04;36.88;99251.18;125714;1097;103007;-72
2021/06/15 10:01:39;;;;;;;4.13;2.13;;;;;;;31.86;36.82;99249.50;125700;1096;102942;-72
2021/06/15 10:04:19;;;;;;;3.73;2.10;;;;;;;31.12;34.58;99240.05;125665;1096;103399;-73
2021/06/15 10:06:56;;;;;;;2.53;1.93;;;;;;;29.77;34.86;99239.61;125711;1097;102916;-73
2021/06/15 10:09:33;;;;;;;2.10;1.57;;;;;;;29.13;34.87;99242.78;125679;1096;102914;-73
2021/06/15 10:12:12;;;;;;;15.97;4.77;;;;;;;28.99;35.69;99243.99;125684;1097;103024;-72
2021/06/15 10:14:40;;;;;;;5.23;2.80;;;;;;;28.98;35.36;99237.70;125705;1097;103017;-72
2021/06/15 10:17:11;;;;;;;7.27;2.20;;;;;;;28.87;35.21;99233.83;125653;1096;103072;-74
2021/06/15 10:19:42;;;;;;;4.35;1.95;;;;;;;28.77;35.04;99233.52;125689;1097;102942;-73
2021/06/15 10:22:11;;;;;;;3.37;1.90;;;;;;;28.79;34.80;99232.20;125666;1096;102941;-72
2021/06/15 10:24:40;;;;;;;4.33;1.53;;;;;;;28.72;34.58;99236.05;125725;1096;103057;-73
2021/06/15 10:27:12;;;;;;;3.27;1.80;;;;;;;28.71;34.57;99223.44;125698;1097;103125;-71
2021/06/15 10:29:48;;;;;;;4.08;2.00;;;;;;;28.54;34.41;99232.22;125676;1097;102929;-72
2021/06/15 10:32:23;;;;;;;3.23;1.77;;;;;;;28.23;34.66;99229.38;125672;1097;102953;-73
2021/06/15 10:35:07;;;;;;;4.23;2.00;;;;;;;27.97;34.15;99227.66;125690;1097;103012;-73
2021/06/15 10:37:36;;;;;;;2.67;1.80;;;;;;;27.70;34.27;99230.59;125697;1096;103128;-72
2021/06/15 10:40:05;;;;;;;6.97;2.30;;;;;;;27.64;34.49;99226.82;125678;1096;102941;-72
2021/06/15 10:42:37;;;;;;;2.70;1.77;;;;;;;27.66;34.60;99233.96;125638;1096;103090;-72
2021/06/15 10:45:20;;;;;;;3.27;2.10;;;;;;;27.63;34.30;99224.33;125659;1096;102920;-73
2021/06/15 10:48:07;;;;;;;5.03;2.13;;;;;;;27.53;34.04;99230.25;125665;1096;103009;-73
2021/06/15 10:50:53;;;;;;;3.70;1.93;;;;;;;27.27;34.02;99223.84;125698;1096;102930;-74
2021/06/15 10:53:37;;;;;;;4.90;2.00;;;;;;;27.12;34.01;99223.27;125703;1096;102984;-72
2021/06/15 10:56:12;;;;;;;5.50;2.10;;;;;;;26.96;33.88;99219.99;125663;1096;102908;-72
2021/06/15 10:58:44;;;;;;;3.67;2.20;;;;;;;26.90;34.21;99216.22;125693;1096;103012;-72
2021/06/15 11:01:15;;;;;;;3.18;2.18;;;;;;;26.92;34.24;99210.56;125681;1095;103515;-73
2021/06/15 11:03:46;;;;;;;3.27;1.90;;;;;;;26.98;34.48;99208.84;125690;1096;103651;-73
2021/06/15 11:06:14;;;;;;;6.17;2.17;;;;;;;26.99;34.21;99208.65;125722;1096;103626;-75
2021/06/15 11:08:43;;;;;;;2.80;2.03;;;;;;;27.00;34.40;99196.67;125569;1096;103096;-73
2021/06/15 11:11:21;;;;;;;5.63;2.20;;;;;;;27.00;34.31;99191.22;125694;1096;103100;-73
2021/06/15 11:13:56;;;;;;;4.03;2.30;;;;;;;26.94;34.08;99196.68;125642;1095;102919;-73
2021/06/15 11:16:31;;;;;;;6.95;3.20;;;;;;;26.73;34.15;99190.44;125593;1095;103049;-72
2021/06/15 11:19:12;;;;;;;5.40;3.00;;;;;;;26.64;34.13;99186.27;125640;1095;102999;-72
2021/06/15 11:21:44;;;;;;;5.50;2.15;;;;;;;26.52;34.18;99184.19;125601;1095;103043;-72
2021/06/15 11:24:33;;;;;;;2.80;1.87;;;;;;;26.50;34.22;99177.28;125664;1095;102941;-73
2021/06/15 11:27:07;;;;;;;5.00;2.10;;;;;;;26.48;34.12;99173.92;125663;1097;103068;-73
2021/06/15 11:29:38;;;;;;;3.60;2.13;;;;;;;26.46;34.33;99176.88;125710;1097;103004;-74
2021/06/15 11:32:36;;;;;;;2.43;1.63;;;;;;;26.39;34.08;99170.59;125664;1096;102920;-74
2021/06/15 11:35:05;;;;;;;4.90;2.53;;;;;;;26.39;34.41;99176.88;125629;1096;103357;-74
2021/06/15 11:37:46;;;;;;;5.37;2.10;;;;;;;26.38;34.15;99171.65;125686;1096;102946;-74
2021/06/15 11:40:16;;;;;;;3.63;2.40;;;;;;;26.32;34.07;99167.86;125687;1096;102948;-72
2021/06/15 11:42:48;;;;;;;3.63;2.00;;;;;;;26.30;34.31;99162.64;125709;1096;103120;-73
2021/06/15 11:45:20;;;;;;;2.95;1.90;;;;;;;26.27;34.25;99156.78;125696;1096;104375;-73